sensor_id;sensor_type;location;lat;lon;timestamp;P1;durP1;ratioP1;P2;durP2;ratioP2
19946;SDS011;10135;50.702;7.276;2023-08-06T05:30:56;1.20;;;1.10;;
19946;SDS011;10135;50.702;7.276;2023-08-06T05:32:57;1.13;;;1.07;;
19946;SDS011;10135;50.702;7.276;2023-08-06T05:34:58;1.13;;;1.00;;
19946;SDS011;10135;50.702;7.276;2023-08-06T05:36:58;0.90;;;0.90;;
19946;SDS011;10135;50.702;7.276;2023-08-06T05:38:59;2.63;;;0.90;;
19946;SDS011;10135;50.702;7.276;2023-08-06T05:41:00;0.80;;;0.80;;
19946;SDS011;10135;50.702;7.276;2023-08-06T05:43:00;1.23;;;1.10;;
19946;SDS011;10135;50.702;7.276;2023-08-06T05:45:01;1.20;;;1.17;;
19946;SDS011;10135;50.702;7.276;2023-08-06T05:47:02;1.00;;;1.00;;
19946;SDS011;10135;50.702;7.276;2023-08-06T05:49:03;1.00;;;0.90;;
19946;SDS011;10135;50.702;7.276;2023-08-06T05:51:05;0.80;;;0.80;;
19946;SDS011;10135;50.702;7.276;2023-08-06T05:53:06;1.07;;;1.07;;
19946;SDS011;10135;50.702;7.276;2023-08-06T05:55:07;0.67;;;0.67;;
19946;SDS011;10135;50.702;7.276;2023-08-06T05:57:08;0.60;;;0.60;;
19946;SDS011;10135;50.702;7.276;2023-08-06T05:59:09;0.70;;;0.60;;
19946;SDS011;10135;50.702;7.276;2023-08-06T06:01:09;0.90;;;0.70;;
19946;SDS011;10135;50.702;7.276;2023-08-06T06:03:10;0.67;;;0.67;;
19946;SDS011;10135;50.702;7.276;2023-08-06T06:05:11;1.07;;;0.97;;
19946;SDS011;10135;50.702;7.276;2023-08-06T06:07:12;0.70;;;0.70;;
19946;SDS011;10135;50.702;7.276;2023-08-06T06:09:12;0.97;;;0.67;;
19946;SDS011;10135;50.702;7.276;2023-08-06T06:11:13;0.93;;;0.90;;
19946;SDS011;10135;50.702;7.276;2023-08-06T06:13:13;0.80;;;0.80;;
19946;SDS011;10135;50.702;7.276;2023-08-06T06:15:14;0.60;;;0.60;;
19946;SDS011;10135;50.702;7.276;2023-08-06T06:17:15;0.80;;;0.80;;
19946;SDS011;10135;50.702;7.276;2023-08-06T06:19:15;0.77;;;0.77;;
19946;SDS011;10135;50.702;7.276;2023-08-06T06:21:16;0.77;;;0.77;;
19946;SDS011;10135;50.702;7.276;2023-08-06T06:23:17;0.90;;;0.90;;
19946;SDS011;10135;50.702;7.276;2023-08-06T06:25:17;0.80;;;0.80;;
19946;SDS011;10135;50.702;7.276;2023-08-06T06:27:18;0.90;;;0.90;;
19946;SDS011;10135;50.702;7.276;2023-08-06T06:29:19;0.80;;;0.80;;
19946;SDS011;10135;50.702;7.276;2023-08-06T06:31:19;0.87;;;0.87;;
19946;SDS011;10135;50.702;7.276;2023-08-06T06:33:20;1.13;;;0.90;;
19946;SDS011;10135;50.702;7.276;2023-08-06T06:35:20;0.70;;;0.70;;
19946;SDS011;10135;50.702;7.276;2023-08-06T06:37:21;1.37;;;0.80;;
19946;SDS011;10135;50.702;7.276;2023-08-06T06:39:22;0.70;;;0.70;;
19946;SDS011;10135;50.702;7.276;2023-08-06T06:41:23;0.80;;;0.80;;
19946;SDS011;10135;50.702;7.276;2023-08-06T06:43:24;0.87;;;0.87;;
19946;SDS011;10135;50.702;7.276;2023-08-06T06:45:25;0.80;;;0.80;;
19946;SDS011;10135;50.702;7.276;2023-08-06T06:47:26;1.40;;;0.70;;
19946;SDS011;10135;50.702;7.276;2023-08-06T06:49:27;0.77;;;0.70;;
19946;SDS011;10135;50.702;7.276;2023-08-06T06:51:27;0.70;;;0.70;;
19946;SDS011;10135;50.702;7.276;2023-08-06T06:53:28;0.70;;;0.70;;
19946;SDS011;10135;50.702;7.276;2023-08-06T06:55:29;0.90;;;0.90;;
19946;SDS011;10135;50.702;7.276;2023-08-06T06:57:29;0.83;;;0.83;;
19946;SDS011;10135;50.702;7.276;2023-08-06T06:59:30;1.00;;;1.00;;
19946;SDS011;10135;50.702;7.276;2023-08-06T07:01:31;0.80;;;0.80;;
19946;SDS011;10135;50.702;7.276;2023-08-06T07:03:31;0.80;;;0.77;;
19946;SDS011;10135;50.702;7.276;2023-08-06T07:05:32;0.80;;;0.80;;
19946;SDS011;10135;50.702;7.276;2023-08-06T07:07:32;0.70;;;0.70;;
19946;SDS011;10135;50.702;7.276;2023-08-06T07:09:33;0.77;;;0.77;;
19946;SDS011;10135;50.702;7.276;2023-08-06T07:11:34;1.37;;;1.00;;
19946;SDS011;10135;50.702;7.276;2023-08-06T07:13:34;0.90;;;0.90;;
19946;SDS011;10135;50.702;7.276;2023-08-06T07:15:35;0.80;;;0.80;;
19946;SDS011;10135;50.702;7.276;2023-08-06T07:17:36;0.63;;;0.63;;
19946;SDS011;10135;50.702;7.276;2023-08-06T07:19:37;0.70;;;0.70;;
19946;SDS011;10135;50.702;7.276;2023-08-06T07:21:37;0.73;;;0.73;;
19946;SDS011;10135;50.702;7.276;2023-08-06T07:23:38;0.60;;;0.60;;
19946;SDS011;10135;50.702;7.276;2023-08-06T07:25:38;0.97;;;0.93;;
19946;SDS011;10135;50.702;7.276;2023-08-06T07:27:39;0.80;;;0.80;;
19946;SDS011;10135;50.702;7.276;2023-08-06T07:29:40;0.80;;;0.80;;
19946;SDS011;10135;50.702;7.276;2023-08-06T07:31:40;0.90;;;0.90;;
19946;SDS011;10135;50.702;7.276;2023-08-06T07:33:41;0.77;;;0.77;;
19946;SDS011;10135;50.702;7.276;2023-08-06T07:35:42;0.70;;;0.70;;
19946;SDS011;10135;50.702;7.276;2023-08-06T07:37:43;0.80;;;0.80;;
19946;SDS011;10135;50.702;7.276;2023-08-06T07:39:44;0.80;;;0.80;;
19946;SDS011;10135;50.702;7.276;2023-08-06T07:41:44;0.73;;;0.73;;
19946;SDS011;10135;50.702;7.276;2023-08-06T07:43:45;0.90;;;0.90;;
19946;SDS011;10135;50.702;7.276;2023-08-06T07:45:46;0.80;;;0.80;;
19946;SDS011;10135;50.702;7.276;2023-08-06T07:47:47;0.70;;;0.70;;
19946;SDS011;10135;50.702;7.276;2023-08-06T07:49:47;0.80;;;0.80;;
19946;SDS011;10135;50.702;7.276;2023-08-06T07:51:48;0.70;;;0.70;;
19946;SDS011;10135;50.702;7.276;2023-08-06T07:53:49;0.80;;;0.80;;
19946;SDS011;10135;50.702;7.276;2023-08-06T07:55:53;0.82;;;0.70;;
19946;SDS011;10135;50.702;7.276;2023-08-06T07:57:54;0.90;;;0.90;;
19946;SDS011;10135;50.702;7.276;2023-08-06T07:59:55;0.82;;;0.80;;
19946;SDS011;10135;50.702;7.276;2023-08-06T08:01:55;0.90;;;0.90;;
19946;SDS011;10135;50.702;7.276;2023-08-06T08:03:56;2.08;;;0.90;;
19946;SDS011;10135;50.702;7.276;2023-08-06T08:05:57;0.90;;;0.90;;
19946;SDS011;10135;50.702;7.276;2023-08-06T08:07:57;0.98;;;0.98;;
19946;SDS011;10135;50.702;7.276;2023-08-06T08:09:58;0.80;;;0.80;;
19946;SDS011;10135;50.702;7.276;2023-08-06T08:11:59;1.13;;;1.00;;
19946;SDS011;10135;50.702;7.276;2023-08-06T08:14:01;0.82;;;0.82;;
19946;SDS011;10135;50.702;7.276;2023-08-06T08:16:02;0.85;;;0.85;;
19946;SDS011;10135;50.702;7.276;2023-08-06T08:18:03;1.00;;;0.90;;
19946;SDS011;10135;50.702;7.276;2023-08-06T08:20:04;1.05;;;1.00;;
19946;SDS011;10135;50.702;7.276;2023-08-06T08:22:05;1.10;;;1.00;;
19946;SDS011;10135;50.702;7.276;2023-08-06T08:24:06;1.00;;;1.00;;
19946;SDS011;10135;50.702;7.276;2023-08-06T08:26:08;0.90;;;0.90;;
19946;SDS011;10135;50.702;7.276;2023-08-06T08:28:08;1.00;;;1.00;;
19946;SDS011;10135;50.702;7.276;2023-08-06T08:30:09;1.10;;;1.10;;
19946;SDS011;10135;50.702;7.276;2023-08-06T08:32:10;1.00;;;1.00;;
19946;SDS011;10135;50.702;7.276;2023-08-06T08:34:10;1.00;;;1.00;;
19946;SDS011;10135;50.702;7.276;2023-08-06T08:36:11;1.02;;;1.02;;
19946;SDS011;10135;50.702;7.276;2023-08-06T08:38:12;1.00;;;1.00;;
19946;SDS011;10135;50.702;7.276;2023-08-06T08:40:13;1.33;;;1.33;;
19946;SDS011;10135;50.702;7.276;2023-08-06T08:42:15;1.10;;;1.10;;
19946;SDS011;10135;50.702;7.276;2023-08-06T08:44:16;1.10;;;1.10;;
19946;SDS011;10135;50.702;7.276;2023-08-06T08:46:18;1.20;;;1.20;;
19946;SDS011;10135;50.702;7.276;2023-08-06T08:48:20;1.92;;;1.35;;
19946;SDS011;10135;50.702;7.276;2023-08-06T08:50:21;1.50;;;1.50;;
19946;SDS011;10135;50.702;7.276;2023-08-06T08:52:22;1.25;;;1.25;;
19946;SDS011;10135;50.702;7.276;2023-08-06T08:54:25;1.33;;;1.27;;
19946;SDS011;10135;50.702;7.276;2023-08-06T08:56:27;4.65;;;1.45;;
19946;SDS011;10135;50.702;7.276;2023-08-06T08:58:28;1.65;;;1.42;;
19946;SDS011;10135;50.702;7.276;2023-08-06T09:00:28;1.90;;;1.20;;
19946;SDS011;10135;50.702;7.276;2023-08-06T09:02:29;3.35;;;1.30;;
19946;SDS011;10135;50.702;7.276;2023-08-06T09:04:32;1.33;;;1.30;;
19946;SDS011;10135;50.702;7.276;2023-08-06T09:06:36;1.33;;;1.23;;
19946;SDS011;10135;50.702;7.276;2023-08-06T09:08:47;1.20;;;1.20;;
19946;SDS011;10135;50.702;7.276;2023-08-06T09:11:12;1.25;;;1.25;;
19946;SDS011;10135;50.702;7.276;2023-08-06T09:13:13;1.30;;;1.30;;
19946;SDS011;10135;50.702;7.276;2023-08-06T09:15:13;1.40;;;1.40;;
19946;SDS011;10135;50.702;7.276;2023-08-06T09:17:14;1.30;;;1.15;;
19946;SDS011;10135;50.702;7.276;2023-08-06T09:19:19;1.30;;;1.30;;
19946;SDS011;10135;50.702;7.276;2023-08-06T09:21:20;1.20;;;1.20;;
19946;SDS011;10135;50.702;7.276;2023-08-06T09:23:21;0.95;;;0.95;;
19946;SDS011;10135;50.702;7.276;2023-08-06T09:25:33;1.55;;;1.40;;
19946;SDS011;10135;50.702;7.276;2023-08-06T09:27:36;1.13;;;1.10;;
19946;SDS011;10135;50.702;7.276;2023-08-06T09:29:39;2.70;;;1.20;;
19946;SDS011;10135;50.702;7.276;2023-08-06T09:31:45;1.20;;;1.20;;
19946;SDS011;10135;50.702;7.276;2023-08-06T09:33:48;1.25;;;1.20;;
19946;SDS011;10135;50.702;7.276;2023-08-06T09:35:49;1.67;;;1.30;;
19946;SDS011;10135;50.702;7.276;2023-08-06T09:37:50;1.17;;;1.17;;
19946;SDS011;10135;50.702;7.276;2023-08-06T09:39:50;1.38;;;1.27;;
19946;SDS011;10135;50.702;7.276;2023-08-06T09:41:55;1.40;;;1.30;;
19946;SDS011;10135;50.702;7.276;2023-08-06T09:44:01;1.17;;;1.10;;
19946;SDS011;10135;50.702;7.276;2023-08-06T09:46:02;1.10;;;1.10;;
19946;SDS011;10135;50.702;7.276;2023-08-06T09:48:13;4.28;;;1.17;;
19946;SDS011;10135;50.702;7.276;2023-08-06T09:50:20;0.90;;;0.90;;
19946;SDS011;10135;50.702;7.276;2023-08-06T09:52:21;1.60;;;0.80;;
19946;SDS011;10135;50.702;7.276;2023-08-06T09:54:22;0.50;;;0.50;;
19946;SDS011;10135;50.702;7.276;2023-08-06T09:56:24;1.33;;;0.83;;
19946;SDS011;10135;50.702;7.276;2023-08-06T09:58:26;0.87;;;0.87;;
19946;SDS011;10135;50.702;7.276;2023-08-06T10:00:27;0.50;;;0.50;;
19946;SDS011;10135;50.702;7.276;2023-08-06T10:02:30;0.50;;;0.50;;
19946;SDS011;10135;50.702;7.276;2023-08-06T10:04:33;0.77;;;0.77;;
19946;SDS011;10135;50.702;7.276;2023-08-06T10:06:34;0.90;;;0.60;;
19946;SDS011;10135;50.702;7.276;2023-08-06T10:08:36;0.50;;;0.50;;
19946;SDS011;10135;50.702;7.276;2023-08-06T10:10:37;0.70;;;0.70;;
19946;SDS011;10135;50.702;7.276;2023-08-06T10:12:39;0.40;;;0.40;;
19946;SDS011;10135;50.702;7.276;2023-08-06T10:14:47;0.50;;;0.50;;
19946;SDS011;10135;50.702;7.276;2023-08-06T10:16:50;0.60;;;0.60;;
19946;SDS011;10135;50.702;7.276;2023-08-06T10:18:51;1.47;;;0.67;;
19946;SDS011;10135;50.702;7.276;2023-08-06T10:20:53;0.30;;;0.30;;
19946;SDS011;10135;50.702;7.276;2023-08-06T10:23:12;0.30;;;0.30;;
19946;SDS011;10135;50.702;7.276;2023-08-06T10:25:17;0.30;;;0.30;;
19946;SDS011;10135;50.702;7.276;2023-08-06T10:27:22;0.30;;;0.30;;
19946;SDS011;10135;50.702;7.276;2023-08-06T10:29:35;0.40;;;0.40;;
19946;SDS011;10135;50.702;7.276;2023-08-06T10:31:55;0.40;;;0.40;;
19946;SDS011;10135;50.702;7.276;2023-08-06T10:34:02;1.90;;;0.57;;
19946;SDS011;10135;50.702;7.276;2023-08-06T10:36:02;0.40;;;0.40;;
19946;SDS011;10135;50.702;7.276;2023-08-06T10:38:12;0.43;;;0.43;;
19946;SDS011;10135;50.702;7.276;2023-08-06T10:40:21;0.60;;;0.60;;
19946;SDS011;10135;50.702;7.276;2023-08-06T10:42:22;0.53;;;0.53;;
19946;SDS011;10135;50.702;7.276;2023-08-06T10:44:28;1.70;;;0.70;;
19946;SDS011;10135;50.702;7.276;2023-08-06T10:46:29;0.77;;;0.77;;
19946;SDS011;10135;50.702;7.276;2023-08-06T10:48:36;0.90;;;0.90;;
19946;SDS011;10135;50.702;7.276;2023-08-06T10:50:44;1.03;;;0.80;;
19946;SDS011;10135;50.702;7.276;2023-08-06T10:52:46;1.50;;;1.00;;
19946;SDS011;10135;50.702;7.276;2023-08-06T10:54:47;0.80;;;0.80;;
19946;SDS011;10135;50.702;7.276;2023-08-06T10:56:48;0.97;;;0.97;;
19946;SDS011;10135;50.702;7.276;2023-08-06T10:58:49;1.33;;;0.97;;
19946;SDS011;10135;50.702;7.276;2023-08-06T11:00:53;2.10;;;0.83;;
19946;SDS011;10135;50.702;7.276;2023-08-06T11:02:56;1.70;;;1.10;;
19946;SDS011;10135;50.702;7.276;2023-08-06T11:04:57;1.90;;;1.20;;
19946;SDS011;10135;50.702;7.276;2023-08-06T11:07:06;0.83;;;0.83;;
19946;SDS011;10135;50.702;7.276;2023-08-06T11:09:07;1.33;;;1.23;;
19946;SDS011;10135;50.702;7.276;2023-08-06T11:11:11;2.13;;;1.33;;
19946;SDS011;10135;50.702;7.276;2023-08-06T11:13:16;1.10;;;1.00;;
19946;SDS011;10135;50.702;7.276;2023-08-06T11:15:19;1.33;;;1.20;;
19946;SDS011;10135;50.702;7.276;2023-08-06T11:17:21;1.90;;;1.27;;
19946;SDS011;10135;50.702;7.276;2023-08-06T11:19:22;1.07;;;1.07;;
19946;SDS011;10135;50.702;7.276;2023-08-06T11:21:23;1.13;;;1.00;;
19946;SDS011;10135;50.702;7.276;2023-08-06T11:23:26;0.97;;;0.97;;
19946;SDS011;10135;50.702;7.276;2023-08-06T11:25:29;1.20;;;1.10;;
19946;SDS011;10135;50.702;7.276;2023-08-06T11:27:30;1.40;;;1.00;;
19946;SDS011;10135;50.702;7.276;2023-08-06T11:29:31;1.07;;;0.83;;
19946;SDS011;10135;50.702;7.276;2023-08-06T11:31:38;1.63;;;1.00;;
19946;SDS011;10135;50.702;7.276;2023-08-06T11:33:39;2.07;;;1.10;;
19946;SDS011;10135;50.702;7.276;2023-08-06T11:35:41;2.53;;;1.20;;
19946;SDS011;10135;50.702;7.276;2023-08-06T11:37:45;1.10;;;1.10;;
19946;SDS011;10135;50.702;7.276;2023-08-06T11:39:46;1.50;;;1.40;;
19946;SDS011;10135;50.702;7.276;2023-08-06T11:41:48;1.03;;;0.97;;
19946;SDS011;10135;50.702;7.276;2023-08-06T11:43:49;1.90;;;1.20;;
19946;SDS011;10135;50.702;7.276;2023-08-06T11:45:50;1.37;;;1.27;;
19946;SDS011;10135;50.702;7.276;2023-08-06T11:47:53;1.33;;;1.07;;
19946;SDS011;10135;50.702;7.276;2023-08-06T11:49:54;1.47;;;0.97;;
19946;SDS011;10135;50.702;7.276;2023-08-06T11:51:55;1.30;;;1.10;;
19946;SDS011;10135;50.702;7.276;2023-08-06T11:53:56;1.60;;;0.97;;
19946;SDS011;10135;50.702;7.276;2023-08-06T11:55:57;1.83;;;1.20;;
19946;SDS011;10135;50.702;7.276;2023-08-06T11:57:59;3.53;;;1.00;;
19946;SDS011;10135;50.702;7.276;2023-08-06T12:00:05;1.83;;;1.00;;
19946;SDS011;10135;50.702;7.276;2023-08-06T12:02:11;1.23;;;1.23;;
19946;SDS011;10135;50.702;7.276;2023-08-06T12:04:11;1.73;;;1.20;;
19946;SDS011;10135;50.702;7.276;2023-08-06T12:06:12;2.17;;;1.10;;
19946;SDS011;10135;50.702;7.276;2023-08-06T12:08:13;3.53;;;1.00;;
19946;SDS011;10135;50.702;7.276;2023-08-06T12:10:14;0.90;;;0.90;;
19946;SDS011;10135;50.702;7.276;2023-08-06T12:12:15;1.10;;;1.10;;
19946;SDS011;10135;50.702;7.276;2023-08-06T12:14:16;1.33;;;1.00;;
19946;SDS011;10135;50.702;7.276;2023-08-06T12:16:17;1.57;;;1.03;;
19946;SDS011;10135;50.702;7.276;2023-08-06T12:18:19;1.13;;;1.00;;
19946;SDS011;10135;50.702;7.276;2023-08-06T12:20:20;1.40;;;1.00;;
19946;SDS011;10135;50.702;7.276;2023-08-06T12:22:21;1.90;;;1.20;;
19946;SDS011;10135;50.702;7.276;2023-08-06T12:24:21;2.43;;;0.90;;
19946;SDS011;10135;50.702;7.276;2023-08-06T12:26:22;1.27;;;1.07;;
19946;SDS011;10135;50.702;7.276;2023-08-06T12:28:22;1.00;;;1.00;;
19946;SDS011;10135;50.702;7.276;2023-08-06T12:30:23;1.00;;;1.00;;
19946;SDS011;10135;50.702;7.276;2023-08-06T12:32:24;1.10;;;1.07;;
19946;SDS011;10135;50.702;7.276;2023-08-06T12:34:24;1.80;;;1.10;;
19946;SDS011;10135;50.702;7.276;2023-08-06T12:36:25;1.00;;;1.00;;
19946;SDS011;10135;50.702;7.276;2023-08-06T12:38:26;1.10;;;1.10;;
19946;SDS011;10135;50.702;7.276;2023-08-06T12:40:26;0.87;;;0.87;;
19946;SDS011;10135;50.702;7.276;2023-08-06T12:42:27;3.30;;;1.07;;
19946;SDS011;10135;50.702;7.276;2023-08-06T12:44:28;0.97;;;0.93;;
19946;SDS011;10135;50.702;7.276;2023-08-06T12:46:28;1.80;;;1.10;;
19946;SDS011;10135;50.702;7.276;2023-08-06T12:48:30;1.13;;;1.00;;
19946;SDS011;10135;50.702;7.276;2023-08-06T12:50:31;1.70;;;1.10;;
19946;SDS011;10135;50.702;7.276;2023-08-06T12:52:32;1.30;;;1.20;;
19946;SDS011;10135;50.702;7.276;2023-08-06T12:54:33;2.03;;;1.30;;
19946;SDS011;10135;50.702;7.276;2023-08-06T12:56:37;1.87;;;1.10;;
19946;SDS011;10135;50.702;7.276;2023-08-06T12:58:37;1.03;;;1.03;;
19946;SDS011;10135;50.702;7.276;2023-08-06T13:00:39;2.23;;;0.87;;
19946;SDS011;10135;50.702;7.276;2023-08-06T13:02:40;1.33;;;1.00;;
19946;SDS011;10135;50.702;7.276;2023-08-06T13:04:41;0.90;;;0.90;;
19946;SDS011;10135;50.702;7.276;2023-08-06T13:06:41;1.50;;;1.00;;
19946;SDS011;10135;50.702;7.276;2023-08-06T13:08:42;1.00;;;1.00;;
19946;SDS011;10135;50.702;7.276;2023-08-06T13:10:43;0.90;;;0.90;;
19946;SDS011;10135;50.702;7.276;2023-08-06T13:12:43;1.43;;;0.90;;
19946;SDS011;10135;50.702;7.276;2023-08-06T13:14:44;1.17;;;0.70;;
19946;SDS011;10135;50.702;7.276;2023-08-06T13:16:45;0.87;;;0.77;;
19946;SDS011;10135;50.702;7.276;2023-08-06T13:18:46;0.73;;;0.73;;
19946;SDS011;10135;50.702;7.276;2023-08-06T13:20:47;0.80;;;0.80;;
19946;SDS011;10135;50.702;7.276;2023-08-06T13:22:49;0.80;;;0.80;;
19946;SDS011;10135;50.702;7.276;2023-08-06T13:24:53;0.60;;;0.60;;
19946;SDS011;10135;50.702;7.276;2023-08-06T13:26:53;0.70;;;0.70;;
19946;SDS011;10135;50.702;7.276;2023-08-06T13:28:54;0.70;;;0.70;;
19946;SDS011;10135;50.702;7.276;2023-08-06T13:30:57;1.43;;;0.73;;
19946;SDS011;10135;50.702;7.276;2023-08-06T13:32:58;1.00;;;0.90;;
19946;SDS011;10135;50.702;7.276;2023-08-06T13:34:59;1.23;;;0.90;;
19946;SDS011;10135;50.702;7.276;2023-08-06T13:36:59;0.80;;;0.80;;
19946;SDS011;10135;50.702;7.276;2023-08-06T13:39:00;0.63;;;0.63;;
19946;SDS011;10135;50.702;7.276;2023-08-06T13:41:01;0.80;;;0.80;;
19946;SDS011;10135;50.702;7.276;2023-08-06T13:43:02;1.23;;;0.70;;
19946;SDS011;10135;50.702;7.276;2023-08-06T13:45:03;1.00;;;0.90;;
19946;SDS011;10135;50.702;7.276;2023-08-06T13:47:05;0.70;;;0.70;;
19946;SDS011;10135;50.702;7.276;2023-08-06T13:49:06;1.50;;;0.83;;
19946;SDS011;10135;50.702;7.276;2023-08-06T13:51:07;1.63;;;0.90;;
19946;SDS011;10135;50.702;7.276;2023-08-06T13:53:08;0.93;;;0.93;;
19946;SDS011;10135;50.702;7.276;2023-08-06T13:55:08;1.00;;;1.00;;
19946;SDS011;10135;50.702;7.276;2023-08-06T13:57:09;0.80;;;0.80;;
19946;SDS011;10135;50.702;7.276;2023-08-06T13:59:10;1.00;;;1.00;;
19946;SDS011;10135;50.702;7.276;2023-08-06T14:01:13;1.00;;;1.00;;
19946;SDS011;10135;50.702;7.276;2023-08-06T14:03:18;1.23;;;1.00;;
19946;SDS011;10135;50.702;7.276;2023-08-06T14:05:19;1.30;;;1.20;;
19946;SDS011;10135;50.702;7.276;2023-08-06T14:07:20;1.10;;;1.10;;
19946;SDS011;10135;50.702;7.276;2023-08-06T14:09:21;1.50;;;1.13;;
19946;SDS011;10135;50.702;7.276;2023-08-06T14:11:22;1.00;;;1.00;;
19946;SDS011;10135;50.702;7.276;2023-08-06T14:13:23;1.33;;;1.33;;
19946;SDS011;10135;50.702;7.276;2023-08-06T14:15:23;1.00;;;1.00;;
19946;SDS011;10135;50.702;7.276;2023-08-06T14:17:24;1.03;;;0.83;;
19946;SDS011;10135;50.702;7.276;2023-08-06T14:19:24;1.63;;;1.07;;
19946;SDS011;10135;50.702;7.276;2023-08-06T14:21:25;1.10;;;1.10;;
19946;SDS011;10135;50.702;7.276;2023-08-06T14:23:26;1.33;;;1.10;;
19946;SDS011;10135;50.702;7.276;2023-08-06T14:25:26;2.27;;;1.10;;
19946;SDS011;10135;50.702;7.276;2023-08-06T14:27:27;2.00;;;1.20;;
19946;SDS011;10135;50.702;7.276;2023-08-06T14:29:28;1.40;;;1.30;;
19946;SDS011;10135;50.702;7.276;2023-08-06T14:31:29;1.13;;;1.10;;
19946;SDS011;10135;50.702;7.276;2023-08-06T14:33:30;0.90;;;0.90;;
19946;SDS011;10135;50.702;7.276;2023-08-06T14:35:30;1.80;;;1.30;;
19946;SDS011;10135;50.702;7.276;2023-08-06T14:37:31;2.67;;;1.20;;
19946;SDS011;10135;50.702;7.276;2023-08-06T14:39:32;1.30;;;1.20;;
19946;SDS011;10135;50.702;7.276;2023-08-06T14:41:32;1.33;;;1.10;;
19946;SDS011;10135;50.702;7.276;2023-08-06T14:43:33;1.50;;;1.00;;
19946;SDS011;10135;50.702;7.276;2023-08-06T14:45:37;0.90;;;0.90;;
19946;SDS011;10135;50.702;7.276;2023-08-06T14:47:39;2.17;;;1.13;;
19946;SDS011;10135;50.702;7.276;2023-08-06T14:49:40;1.67;;;0.90;;
19946;SDS011;10135;50.702;7.276;2023-08-06T14:51:40;2.33;;;1.10;;
19946;SDS011;10135;50.702;7.276;2023-08-06T14:53:41;0.80;;;0.80;;
19946;SDS011;10135;50.702;7.276;2023-08-06T14:55:43;1.20;;;1.00;;
19946;SDS011;10135;50.702;7.276;2023-08-06T14:57:43;0.87;;;0.87;;
19946;SDS011;10135;50.702;7.276;2023-08-06T14:59:44;1.43;;;1.30;;
19946;SDS011;10135;50.702;7.276;2023-08-06T15:01:45;1.40;;;0.97;;
19946;SDS011;10135;50.702;7.276;2023-08-06T15:03:45;1.03;;;1.00;;
19946;SDS011;10135;50.702;7.276;2023-08-06T15:05:47;1.00;;;0.90;;
19946;SDS011;10135;50.702;7.276;2023-08-06T15:07:48;0.83;;;0.80;;
19946;SDS011;10135;50.702;7.276;2023-08-06T15:09:49;1.93;;;1.03;;
19946;SDS011;10135;50.702;7.276;2023-08-06T15:11:49;1.20;;;0.87;;
19946;SDS011;10135;50.702;7.276;2023-08-06T15:13:50;0.70;;;0.70;;
19946;SDS011;10135;50.702;7.276;2023-08-06T15:15:51;0.60;;;0.60;;
19946;SDS011;10135;50.702;7.276;2023-08-06T15:17:52;0.80;;;0.80;;
19946;SDS011;10135;50.702;7.276;2023-08-06T15:19:53;1.03;;;0.70;;
19946;SDS011;10135;50.702;7.276;2023-08-06T15:21:53;0.60;;;0.60;;
19946;SDS011;10135;50.702;7.276;2023-08-06T15:23:54;0.70;;;0.70;;
19946;SDS011;10135;50.702;7.276;2023-08-06T15:25:55;0.53;;;0.53;;
19946;SDS011;10135;50.702;7.276;2023-08-06T15:27:55;0.50;;;0.50;;
19946;SDS011;10135;50.702;7.276;2023-08-06T15:29:56;0.50;;;0.50;;
19946;SDS011;10135;50.702;7.276;2023-08-06T15:31:57;0.50;;;0.50;;
19946;SDS011;10135;50.702;7.276;2023-08-06T15:33:57;0.50;;;0.50;;
19946;SDS011;10135;50.702;7.276;2023-08-06T15:35:58;0.43;;;0.43;;
19946;SDS011;10135;50.702;7.276;2023-08-06T15:37:58;0.77;;;0.60;;
19946;SDS011;10135;50.702;7.276;2023-08-06T15:39:59;0.63;;;0.63;;
19946;SDS011;10135;50.702;7.276;2023-08-06T15:42:00;0.60;;;0.60;;
19946;SDS011;10135;50.702;7.276;2023-08-06T15:44:00;0.60;;;0.60;;
19946;SDS011;10135;50.702;7.276;2023-08-06T15:46:01;0.50;;;0.50;;
19946;SDS011;10135;50.702;7.276;2023-08-06T15:48:02;0.30;;;0.30;;
19946;SDS011;10135;50.702;7.276;2023-08-06T15:50:03;0.53;;;0.50;;
19946;SDS011;10135;50.702;7.276;2023-08-06T15:52:06;0.50;;;0.50;;
19946;SDS011;10135;50.702;7.276;2023-08-06T15:54:07;0.43;;;0.43;;
19946;SDS011;10135;50.702;7.276;2023-08-06T15:56:08;0.40;;;0.40;;
19946;SDS011;10135;50.702;7.276;2023-08-06T15:58:09;0.50;;;0.50;;
19946;SDS011;10135;50.702;7.276;2023-08-06T16:00:10;1.60;;;0.70;;
19946;SDS011;10135;50.702;7.276;2023-08-06T16:02:11;0.50;;;0.50;;
19946;SDS011;10135;50.702;7.276;2023-08-06T16:04:13;0.50;;;0.50;;
19946;SDS011;10135;50.702;7.276;2023-08-06T16:06:13;0.53;;;0.50;;
19946;SDS011;10135;50.702;7.276;2023-08-06T16:08:14;0.50;;;0.50;;
19946;SDS011;10135;50.702;7.276;2023-08-06T16:10:15;0.60;;;0.60;;
19946;SDS011;10135;50.702;7.276;2023-08-06T16:12:18;0.63;;;0.63;;
19946;SDS011;10135;50.702;7.276;2023-08-06T16:14:20;0.50;;;0.50;;
19946;SDS011;10135;50.702;7.276;2023-08-06T16:16:21;1.70;;;0.60;;
19946;SDS011;10135;50.702;7.276;2023-08-06T16:18:21;0.60;;;0.60;;
19946;SDS011;10135;50.702;7.276;2023-08-06T16:20:22;0.90;;;0.80;;
19946;SDS011;10135;50.702;7.276;2023-08-06T16:22:22;0.60;;;0.60;;
19946;SDS011;10135;50.702;7.276;2023-08-06T16:24:25;0.63;;;0.63;;
19946;SDS011;10135;50.702;7.276;2023-08-06T16:26:25;0.60;;;0.60;;
19946;SDS011;10135;50.702;7.276;2023-08-06T16:28:26;1.43;;;0.60;;
19946;SDS011;10135;50.702;7.276;2023-08-06T16:30:28;0.90;;;0.70;;
19946;SDS011;10135;50.702;7.276;2023-08-06T16:32:31;0.60;;;0.60;;
19946;SDS011;10135;50.702;7.276;2023-08-06T16:34:33;0.73;;;0.73;;
19946;SDS011;10135;50.702;7.276;2023-08-06T16:36:33;0.73;;;0.73;;
19946;SDS011;10135;50.702;7.276;2023-08-06T16:38:34;0.63;;;0.63;;
19946;SDS011;10135;50.702;7.276;2023-08-06T16:40:35;0.60;;;0.60;;
19946;SDS011;10135;50.702;7.276;2023-08-06T16:42:35;0.77;;;0.77;;
19946;SDS011;10135;50.702;7.276;2023-08-06T16:44:36;1.70;;;0.90;;
19946;SDS011;10135;50.702;7.276;2023-08-06T16:46:37;0.80;;;0.80;;
19946;SDS011;10135;50.702;7.276;2023-08-06T16:48:38;0.90;;;0.70;;
19946;SDS011;10135;50.702;7.276;2023-08-06T16:50:38;1.50;;;0.90;;
19946;SDS011;10135;50.702;7.276;2023-08-06T16:52:39;0.60;;;0.60;;
19946;SDS011;10135;50.702;7.276;2023-08-06T16:54:40;0.80;;;0.80;;
19946;SDS011;10135;50.702;7.276;2023-08-06T16:56:40;2.70;;;0.90;;
19946;SDS011;10135;50.702;7.276;2023-08-06T16:58:41;1.17;;;0.80;;
19946;SDS011;10135;50.702;7.276;2023-08-06T17:00:45;0.93;;;0.83;;
19946;SDS011;10135;50.702;7.276;2023-08-06T17:02:49;1.90;;;1.10;;
19946;SDS011;10135;50.702;7.276;2023-08-06T17:04:50;0.80;;;0.80;;
19946;SDS011;10135;50.702;7.276;2023-08-06T17:06:51;0.90;;;0.90;;
19946;SDS011;10135;50.702;7.276;2023-08-06T17:08:53;0.77;;;0.77;;
19946;SDS011;10135;50.702;7.276;2023-08-06T17:10:53;0.97;;;0.80;;
19946;SDS011;10135;50.702;7.276;2023-08-06T17:12:54;1.03;;;0.87;;
19946;SDS011;10135;50.702;7.276;2023-08-06T17:14:55;1.13;;;0.90;;
19946;SDS011;10135;50.702;7.276;2023-08-06T17:16:58;0.90;;;0.90;;
19946;SDS011;10135;50.702;7.276;2023-08-06T17:18:58;0.73;;;0.73;;
19946;SDS011;10135;50.702;7.276;2023-08-06T17:20:59;1.17;;;1.07;;
19946;SDS011;10135;50.702;7.276;2023-08-06T17:23:01;0.87;;;0.87;;
19946;SDS011;10135;50.702;7.276;2023-08-06T17:25:03;2.30;;;1.10;;
19946;SDS011;10135;50.702;7.276;2023-08-06T17:27:05;0.90;;;0.90;;
19946;SDS011;10135;50.702;7.276;2023-08-06T17:29:06;0.80;;;0.80;;
19946;SDS011;10135;50.702;7.276;2023-08-06T17:31:06;1.83;;;0.90;;
19946;SDS011;10135;50.702;7.276;2023-08-06T17:33:07;0.70;;;0.70;;
19946;SDS011;10135;50.702;7.276;2023-08-06T17:35:08;1.07;;;0.83;;
19946;SDS011;10135;50.702;7.276;2023-08-06T17:37:09;1.10;;;1.10;;
19946;SDS011;10135;50.702;7.276;2023-08-06T17:39:10;1.23;;;1.00;;
19946;SDS011;10135;50.702;7.276;2023-08-06T17:41:10;1.07;;;1.07;;
19946;SDS011;10135;50.702;7.276;2023-08-06T17:43:11;1.00;;;0.70;;